createdAt,value
2019-02-26T00:00:26.919Z,44.27
2019-02-26T00:02:56.349Z,44.25
2019-02-26T00:05:26.143Z,43.65
2019-02-26T00:07:56.161Z,42.08
2019-02-26T00:10:26.733Z,42.50
2019-02-26T00:12:55.323Z,43.42
2019-02-26T00:15:23.639Z,42.78
2019-02-26T00:17:53.030Z,42.83
2019-02-26T00:20:21.475Z,42.67
2019-02-26T00:22:49.896Z,41.42
2019-02-26T00:25:20.371Z,39.08
2019-02-26T00:27:49.634Z,40.67
2019-02-26T00:30:18.621Z,38.67
2019-02-26T00:32:47.133Z,37.48
2019-02-26T00:35:16.017Z,38.10
2019-02-26T00:37:46.641Z,38.55
2019-02-26T00:40:19.575Z,37.10
2019-02-26T00:42:45.559Z,38.05
2019-02-26T00:45:14.227Z,37.08
2019-02-26T00:47:43.551Z,35.25
2019-02-26T00:50:14.232Z,34.67
2019-02-26T00:52:43.792Z,34.25
2019-02-26T00:55:12.210Z,36.75
2019-02-26T00:57:42.482Z,36.25
2019-02-26T01:00:15.311Z,34.75
2019-02-26T01:02:43.603Z,35.23
2019-02-26T01:05:13.140Z,33.50
2019-02-26T01:07:44.260Z,30.60
2019-02-26T01:10:13.972Z,30.90
2019-02-26T01:12:42.638Z,30.27
2019-02-26T01:15:14.110Z,27.48
2019-02-26T01:17:42.538Z,30.43
2019-02-26T01:20:13.052Z,27.58
2019-02-26T01:22:42.851Z,27.13
2019-02-26T01:25:12.673Z,27.40
2019-02-26T01:27:43.712Z,28.23
2019-02-26T01:30:18.168Z,28.07
2019-02-26T01:32:45.522Z,29.50
2019-02-26T01:35:13.792Z,27.75
2019-02-26T01:37:42.103Z,31.60
2019-02-26T01:40:16.382Z,28.07
2019-02-26T01:42:47.295Z,28.42
2019-02-26T01:45:14.448Z,27.70
2019-02-26T01:47:45.269Z,29.98
2019-02-26T01:50:13.973Z,28.40
2019-02-26T01:52:43.295Z,27.65
2019-02-26T01:55:11.989Z,27.25
2019-02-26T01:57:42.655Z,27.77
2019-02-26T02:00:13.615Z,26.77
2019-02-26T02:02:41.930Z,26.35
2019-02-26T02:05:10.283Z,27.67
2019-02-26T02:07:38.662Z,28.57
2019-02-26T02:10:14.471Z,26.73
2019-02-26T02:12:42.748Z,28.73
2019-02-26T02:15:14.914Z,27.62
2019-02-26T02:17:42.923Z,27.98
2019-02-26T02:20:15.698Z,27.60
2019-02-26T02:22:44.465Z,27.60
2019-02-26T02:25:13.009Z,29.60
2019-02-26T02:27:41.368Z,27.73
2019-02-26T02:30:17.903Z,25.95
2019-02-26T02:32:43.019Z,27.45
2019-02-26T02:35:12.556Z,25.90
2019-02-26T02:37:41.354Z,27.52
2019-02-26T02:40:13.832Z,28.00
2019-02-26T02:42:43.102Z,28.42
2019-02-26T02:45:16.115Z,26.55
2019-02-26T02:47:42.949Z,26.85
2019-02-26T02:50:15.236Z,27.17
2019-02-26T02:52:44.552Z,28.32
2019-02-26T02:55:13.821Z,24.95
2019-02-26T02:57:42.831Z,25.68
2019-02-26T03:00:13.041Z,28.30
2019-02-26T03:02:43.242Z,26.55
2019-02-26T03:05:12.403Z,27.02
2019-02-26T03:07:42.374Z,25.65
2019-02-26T03:10:13.210Z,26.50
2019-02-26T03:12:44.105Z,26.40
2019-02-26T03:15:14.868Z,26.85
2019-02-26T03:17:43.221Z,25.92
2019-02-26T03:20:12.536Z,27.37
2019-02-26T03:22:45.089Z,26.05
2019-02-26T03:25:17.755Z,28.70
2019-02-26T03:27:45.399Z,27.22
2019-02-26T03:30:26.268Z,27.27
2019-02-26T03:32:50.526Z,26.55
2019-02-26T03:35:19.692Z,27.52
2019-02-26T03:37:48.798Z,24.67
2019-02-26T03:40:16.903Z,23.98
2019-02-26T03:42:46.282Z,25.50
2019-02-26T03:45:23.795Z,23.83
2019-02-26T03:47:47.727Z,25.25
2019-02-26T03:50:16.468Z,25.10
2019-02-26T03:52:44.928Z,26.50
2019-02-26T03:55:15.453Z,24.10
2019-02-26T03:57:47.257Z,24.02
2019-02-26T04:00:17.417Z,22.40
2019-02-26T04:02:48.134Z,23.10
2019-02-26T04:05:15.528Z,23.15
2019-02-26T04:07:44.150Z,21.20
2019-02-26T04:10:13.027Z,22.35
2019-02-26T04:12:42.230Z,21.97
2019-02-26T04:15:14.674Z,23.70
2019-02-26T04:17:42.957Z,21.77
2019-02-26T04:20:12.775Z,22.30
2019-02-26T04:25:22.080Z,23.85
2019-02-26T04:28:12.302Z,22.37
2019-02-26T04:30:58.919Z,22.90
2019-02-26T04:33:48.825Z,22.90
2019-02-26T04:36:26.460Z,22.55
2019-02-26T04:39:15.847Z,24.52
2019-02-26T04:41:49.513Z,23.18
2019-02-26T04:44:26.821Z,23.90
2019-02-26T04:46:57.078Z,25.50
2019-02-26T04:49:27.132Z,26.87
2019-02-26T04:51:54.991Z,23.87
2019-02-26T04:54:26.319Z,23.77
2019-02-26T04:56:53.331Z,24.57
2019-02-26T04:59:21.609Z,25.68
2019-02-26T05:01:52.222Z,24.63
2019-02-26T05:04:19.934Z,24.85
2019-02-26T05:06:48.279Z,22.67
2019-02-26T05:09:17.526Z,24.25
2019-02-26T05:11:45.861Z,25.82
2019-02-26T05:14:15.369Z,23.40
2019-02-26T05:16:44.185Z,26.80
2019-02-26T05:19:13.594Z,25.50
2019-02-26T05:21:42.530Z,26.60
2019-02-26T05:24:13.058Z,27.22
2019-02-26T05:26:40.860Z,27.52
2019-02-26T05:29:12.260Z,29.35
2019-02-26T05:31:43.040Z,28.38
2019-02-26T05:34:12.453Z,29.30
2019-02-26T05:36:43.542Z,29.52
2019-02-26T05:39:10.693Z,31.55
2019-02-26T05:41:40.628Z,31.25
2019-02-26T05:44:10.671Z,30.90
2019-02-26T05:46:39.199Z,33.35
2019-02-26T05:49:10.621Z,34.83
2019-02-26T05:51:38.238Z,36.00
2019-02-26T05:54:08.011Z,35.58
2019-02-26T05:56:38.158Z,33.83
2019-02-26T05:59:07.464Z,34.18
2019-02-26T06:01:36.856Z,32.05
2019-02-26T06:04:07.697Z,30.10
2019-02-26T06:06:35.204Z,33.00
2019-02-26T06:09:05.601Z,31.23
2019-02-26T06:11:38.546Z,30.75
2019-02-26T06:14:09.079Z,31.82
2019-02-26T06:16:35.165Z,32.48
2019-02-26T06:19:03.566Z,31.27
2019-02-26T06:21:31.908Z,33.67
2019-02-26T06:24:00.410Z,35.55
2019-02-26T06:26:32.690Z,35.20
2019-02-26T06:28:58.780Z,34.08
2019-02-26T06:31:27.346Z,34.15
2019-02-26T06:33:55.727Z,36.65
2019-02-26T06:36:25.754Z,35.13
2019-02-26T06:38:56.025Z,33.90
2019-02-26T06:41:24.195Z,33.08
2019-02-26T06:43:55.088Z,33.48
2019-02-26T06:46:29.431Z,33.65
2019-02-26T06:48:58.827Z,34.67
2019-02-26T06:51:28.307Z,36.50
2019-02-26T06:53:58.833Z,35.52
2019-02-26T06:56:27.243Z,35.63
2019-02-26T06:58:55.592Z,37.45
2019-02-26T07:01:23.971Z,37.17
2019-02-26T07:03:53.847Z,37.65
2019-02-26T07:06:23.416Z,40.25
2019-02-26T07:08:53.500Z,37.60
2019-02-26T07:13:55.431Z,35.80
2019-02-26T07:16:23.745Z,35.55
2019-02-26T07:18:52.119Z,35.88
2019-02-26T07:21:20.430Z,37.48
2019-02-26T07:23:48.919Z,35.00
2019-02-26T07:26:18.539Z,36.00
2019-02-26T07:28:48.808Z,35.83
2019-02-26T07:31:17.442Z,33.70
2019-02-26T07:33:45.785Z,33.55
2019-02-26T07:36:16.065Z,36.70
2019-02-26T07:38:46.446Z,38.00
2019-02-26T07:41:14.225Z,39.95
2019-02-26T07:43:44.608Z,40.48
2019-02-26T07:46:14.476Z,38.55
2019-02-26T07:48:42.647Z,39.33
2019-02-26T07:51:10.923Z,38.48
2019-02-26T07:53:42.008Z,40.80
2019-02-26T07:56:11.896Z,40.00
2019-02-26T07:58:41.197Z,40.05
2019-02-26T08:01:10.276Z,35.68
2019-02-26T08:03:38.557Z,36.55
2019-02-26T08:06:09.127Z,38.48
2019-02-26T08:08:37.462Z,38.00
2019-02-26T08:11:06.997Z,36.33
2019-02-26T08:13:36.598Z,38.50
2019-02-26T08:18:33.748Z,37.05
2019-02-26T08:21:03.000Z,34.85
2019-02-26T08:23:32.159Z,34.48
2019-02-26T08:26:02.326Z,35.43
2019-02-26T08:28:38.386Z,35.80
2019-02-26T08:31:05.503Z,33.60
2019-02-26T08:33:33.807Z,33.73
2019-02-26T08:36:03.053Z,34.00
2019-02-26T08:38:31.447Z,36.70
2019-02-26T08:40:59.992Z,36.53
2019-02-26T08:43:30.008Z,34.60
2019-02-26T08:45:58.329Z,36.33
2019-02-26T08:48:27.154Z,34.27
2019-02-26T08:50:55.869Z,35.10
2019-02-26T08:53:26.498Z,36.83
2019-02-26T08:55:56.271Z,35.90
2019-02-26T08:58:25.748Z,36.08
2019-02-26T09:00:54.619Z,36.80
2019-02-26T09:03:22.916Z,37.93
2019-02-26T09:05:52.170Z,35.98
2019-02-26T09:08:21.335Z,33.67
2019-02-26T09:10:49.607Z,32.78
2019-02-26T09:13:18.703Z,32.60
2019-02-26T09:15:47.407Z,35.55
2019-02-26T09:18:16.022Z,36.53
2019-02-26T09:20:44.491Z,35.73
2019-02-26T09:23:16.312Z,33.63
2019-02-26T09:25:42.916Z,31.87
2019-02-26T09:28:11.290Z,33.28
2019-02-26T09:30:40.822Z,31.12
2019-02-26T09:35:38.588Z,31.77
2019-02-26T09:38:06.918Z,28.30
2019-02-26T09:40:35.726Z,31.23
2019-02-26T09:43:06.046Z,30.97
2019-02-26T09:45:34.240Z,30.30
2019-02-26T09:48:02.597Z,30.88
2019-02-26T09:50:31.469Z,31.73
2019-02-26T09:52:59.807Z,33.00
2019-02-26T09:55:28.224Z,33.73
2019-02-26T09:57:56.591Z,30.77
2019-02-26T10:00:27.097Z,30.60
2019-02-26T10:02:55.629Z,32.90
2019-02-26T10:05:40.161Z,31.55
2019-02-26T10:08:08.838Z,32.30
2019-02-26T10:10:39.679Z,32.63
2019-02-26T10:13:07.292Z,31.25
2019-02-26T10:15:37.391Z,29.85
2019-02-26T10:18:07.231Z,32.93
2019-02-26T10:20:35.671Z,30.72
2019-02-26T10:23:06.186Z,33.95
2019-02-26T10:25:34.990Z,37.85
2019-02-26T10:28:08.809Z,37.13
2019-02-26T10:30:38.281Z,34.85
2019-02-26T10:33:06.003Z,34.73
2019-02-26T10:35:36.143Z,36.68
2019-02-26T10:38:06.231Z,39.15
2019-02-26T10:40:37.071Z,35.78
2019-02-26T10:43:04.386Z,34.13
2019-02-26T10:45:36.034Z,31.12
2019-02-26T10:48:02.777Z,31.65
2019-02-26T10:50:32.050Z,33.75
2019-02-26T10:53:07.229Z,31.50
2019-02-26T10:55:38.197Z,31.42
2019-02-26T10:58:04.763Z,31.73
2019-02-26T11:00:34.497Z,29.57
2019-02-26T11:03:01.108Z,30.85
2019-02-26T11:05:29.459Z,32.33
2019-02-26T11:08:01.718Z,33.70
2019-02-26T11:10:28.132Z,32.35
2019-02-26T11:12:59.275Z,33.55
2019-02-26T11:15:29.767Z,31.45
2019-02-26T11:17:56.539Z,31.48
2019-02-26T11:20:27.799Z,33.28
2019-02-26T11:22:55.480Z,32.90
2019-02-26T11:25:24.891Z,29.98
2019-02-26T11:27:53.763Z,29.98
2019-02-26T11:30:25.851Z,31.48
2019-02-26T11:32:56.028Z,30.77
2019-02-26T11:35:24.647Z,30.40
2019-02-26T11:37:55.400Z,30.00
2019-02-26T11:40:25.435Z,29.15
2019-02-26T11:42:54.844Z,32.15
2019-02-26T11:45:24.498Z,29.60
2019-02-26T11:50:28.090Z,29.77
2019-02-26T11:52:55.036Z,29.52
2019-02-26T11:55:24.382Z,32.58
2019-02-26T11:57:53.539Z,32.42
2019-02-26T12:00:42.268Z,31.65
2019-02-26T12:03:12.438Z,32.55
2019-02-26T12:05:41.834Z,33.45
2019-02-26T12:08:11.546Z,31.52
2019-02-26T12:10:42.223Z,30.23
2019-02-26T12:13:10.564Z,31.50
2019-02-26T12:15:42.624Z,31.17
2019-02-26T12:18:10.177Z,30.08
2019-02-26T12:20:41.006Z,32.58
2019-02-26T12:23:11.602Z,29.95
2019-02-26T12:25:39.296Z,28.70
2019-02-26T12:28:08.157Z,32.03
2019-02-26T12:30:43.739Z,31.55
2019-02-26T12:33:12.358Z,28.65
2019-02-26T12:35:42.966Z,28.12
2019-02-26T12:38:18.067Z,26.97
2019-02-26T12:40:44.101Z,26.05
2019-02-26T12:43:11.683Z,29.02
2019-02-26T12:45:40.832Z,27.67
2019-02-26T12:48:10.304Z,25.35
2019-02-26T12:50:40.469Z,27.30
2019-02-26T12:53:12.706Z,27.27
2019-02-26T12:55:42.072Z,29.18
2019-02-26T12:58:10.624Z,31.50
2019-02-26T13:00:41.999Z,32.23
2019-02-26T13:03:12.339Z,30.05
2019-02-26T13:05:42.450Z,30.02
2019-02-26T13:08:10.582Z,27.93
2019-02-26T13:10:42.558Z,29.72
2019-02-26T13:13:09.449Z,26.00
2019-02-26T13:15:37.865Z,20.23
2019-02-26T13:18:06.322Z,16.55
2019-02-26T13:20:35.357Z,16.70
2019-02-26T13:23:16.490Z,16.70
2019-02-26T13:25:34.596Z,16.90
2019-02-26T13:28:02.886Z,15.75
2019-02-26T13:30:31.285Z,14.98
2019-02-26T13:33:00.886Z,15.23
2019-02-26T13:35:29.715Z,15.55
2019-02-26T13:38:02.968Z,15.68
2019-02-26T13:40:38.222Z,14.87
2019-02-26T13:45:29.736Z,14.30
2019-02-26T13:48:01.320Z,14.95
2019-02-26T13:50:30.406Z,14.35
2019-02-26T13:52:58.716Z,14.90
2019-02-26T13:55:26.991Z,14.83
2019-02-26T13:57:55.388Z,15.50
2019-02-26T14:00:26.721Z,16.25
2019-02-26T14:02:53.764Z,16.73
2019-02-26T14:05:22.251Z,17.27
2019-02-26T14:07:50.731Z,17.67
2019-02-26T14:10:25.667Z,17.17
2019-02-26T14:12:54.022Z,17.75
2019-02-26T14:15:26.677Z,18.35
2019-02-26T14:17:55.063Z,17.10
2019-02-26T14:20:24.407Z,17.92
2019-02-26T14:22:52.791Z,18.98
2019-02-26T14:25:21.079Z,18.35
2019-02-26T14:27:49.812Z,18.00
2019-02-26T14:30:22.106Z,19.30
2019-02-26T14:32:50.462Z,19.42
2019-02-26T14:35:18.771Z,19.92
2019-02-26T14:37:47.244Z,19.73
2019-02-26T14:40:19.438Z,19.05
2019-02-26T14:42:47.766Z,19.75
2019-02-26T14:45:20.629Z,20.27
2019-02-26T14:47:49.030Z,20.27
2019-02-26T14:50:18.551Z,20.50
2019-02-26T14:52:46.960Z,21.57
2019-02-26T14:55:16.090Z,20.90
2019-02-26T14:57:44.481Z,20.43
2019-02-26T15:00:24.355Z,21.35
2019-02-26T15:02:52.702Z,20.17
2019-02-26T15:05:20.982Z,20.65
2019-02-26T15:07:49.381Z,19.87
2019-02-26T15:10:17.738Z,19.23
2019-02-26T15:12:46.182Z,24.02
2019-02-26T15:15:16.910Z,19.80
2019-02-26T15:17:45.263Z,19.23
2019-02-26T15:20:21.877Z,17.15
2019-02-26T15:22:50.200Z,18.60
2019-02-26T15:25:23.760Z,24.45
2019-02-26T15:27:52.150Z,18.15
2019-02-26T15:30:21.463Z,19.12
2019-02-26T15:32:49.823Z,18.77
2019-02-26T15:35:18.222Z,17.50
2019-02-26T15:37:46.568Z,16.60
2019-02-26T15:40:19.676Z,18.65
2019-02-26T15:42:52.298Z,20.40
2019-02-26T15:45:29.513Z,16.82
2019-02-26T15:47:58.054Z,15.38
2019-02-26T15:50:26.415Z,15.68
2019-02-26T15:52:54.703Z,15.45
2019-02-26T15:55:25.904Z,15.85
2019-02-26T15:57:54.788Z,15.13
2019-02-26T16:00:24.713Z,15.68
2019-02-26T16:02:53.860Z,16.50
2019-02-26T16:05:31.120Z,19.62
2019-02-26T16:07:59.545Z,17.10
2019-02-26T16:10:27.898Z,18.25
2019-02-26T16:12:57.896Z,17.32
2019-02-26T16:15:26.334Z,17.92
2019-02-26T16:17:58.165Z,17.80
2019-02-26T16:20:24.842Z,17.42
2019-02-26T16:22:53.240Z,17.42
2019-02-26T16:25:21.612Z,18.67
2019-02-26T16:27:51.672Z,17.80
2019-02-26T16:30:21.873Z,18.48
2019-02-26T16:32:50.348Z,18.40
2019-02-26T16:35:18.734Z,17.35
2019-02-26T16:38:06.583Z,17.95
2019-02-26T16:40:34.959Z,20.35
2019-02-26T16:43:03.749Z,20.25
2019-02-26T16:45:35.075Z,22.25
2019-02-26T16:48:02.123Z,22.17
2019-02-26T16:50:31.415Z,22.40
2019-02-26T16:53:01.052Z,21.37
2019-02-26T16:55:29.880Z,22.42
2019-02-26T16:58:02.375Z,22.77
2019-02-26T17:00:29.727Z,29.67
2019-02-26T17:05:27.406Z,23.73
2019-02-26T17:07:56.087Z,23.25
2019-02-26T17:10:29.365Z,23.25
2019-02-26T17:13:01.994Z,24.82
2019-02-26T17:15:30.668Z,26.93
2019-02-26T17:17:59.014Z,31.77
2019-02-26T17:20:27.367Z,24.25
2019-02-26T17:22:55.774Z,26.10
2019-02-26T17:25:27.525Z,24.18
2019-02-26T17:27:54.151Z,23.38
2019-02-26T17:30:23.863Z,25.15
2019-02-26T17:32:52.475Z,23.87
2019-02-26T17:35:21.379Z,24.95
2019-02-26T17:37:52.727Z,24.67
2019-02-26T17:40:22.243Z,25.05
2019-02-26T17:42:51.312Z,24.65
2019-02-26T17:45:31.515Z,23.65
2019-02-26T17:47:59.909Z,23.50
2019-02-26T17:50:37.252Z,23.62
2019-02-26T17:53:05.552Z,25.55
2019-02-26T17:55:33.835Z,24.95
2019-02-26T17:58:02.156Z,28.27
2019-02-26T18:00:32.148Z,27.67
2019-02-26T18:03:00.431Z,31.05
2019-02-26T18:05:28.828Z,33.78
2019-02-26T18:07:57.179Z,34.80
2019-02-26T18:10:26.627Z,35.38
2019-02-26T18:12:55.581Z,35.10
2019-02-26T18:15:23.957Z,38.42
2019-02-26T18:17:52.297Z,36.95
2019-02-26T18:20:28.087Z,37.05
2019-02-26T18:22:54.320Z,37.78
2019-02-26T18:25:23.510Z,37.03
2019-02-26T18:27:51.833Z,38.70
2019-02-26T18:30:22.024Z,36.50
2019-02-26T18:32:53.164Z,35.48
2019-02-26T18:35:20.443Z,38.48
2019-02-26T18:37:48.900Z,37.38
2019-02-26T18:40:17.817Z,39.18
2019-02-26T18:42:46.337Z,41.05
2019-02-26T18:45:27.447Z,40.45
2019-02-26T18:47:53.048Z,43.85
2019-02-26T18:50:25.791Z,45.60
2019-02-26T18:52:54.087Z,49.98
2019-02-26T18:55:38.537Z,47.50
2019-02-26T18:58:13.731Z,48.33
2019-02-26T19:00:43.055Z,46.85
2019-02-26T19:03:13.080Z,50.12
2019-02-26T19:05:41.427Z,54.33
2019-02-26T19:08:09.772Z,50.70
2019-02-26T19:10:38.171Z,56.37
2019-02-26T19:13:06.599Z,54.48
2019-02-26T19:15:36.945Z,57.58
2019-02-26T19:18:05.331Z,55.83
2019-02-26T19:20:38.725Z,55.65
2019-02-26T19:23:07.108Z,57.30
2019-02-26T19:25:35.481Z,54.23
2019-02-26T19:28:03.864Z,56.55
2019-02-26T19:30:32.264Z,55.92
2019-02-26T19:33:00.687Z,58.23
2019-02-26T19:35:34.803Z,56.92
2019-02-26T19:38:02.729Z,59.85
2019-02-26T19:40:40.650Z,54.27
2019-02-26T19:43:11.976Z,58.80
2019-02-26T19:45:43.815Z,60.30
2019-02-26T19:48:10.407Z,57.55
2019-02-26T19:50:38.796Z,58.30
2019-02-26T19:53:10.732Z,57.30
2019-02-26T19:55:48.797Z,58.08
2019-02-26T19:58:32.260Z,61.08
2019-02-26T20:01:00.786Z,59.55
2019-02-26T20:06:23.568Z,65.20
2019-02-26T20:08:52.389Z,68.83
2019-02-26T20:11:22.761Z,66.30
2019-02-26T20:13:50.848Z,67.62
2019-02-26T20:16:19.136Z,69.60
2019-02-26T20:18:47.420Z,71.17
2019-02-26T20:21:19.663Z,68.28
2019-02-26T20:23:53.536Z,69.17
2019-02-26T20:26:22.122Z,72.87
2019-02-26T20:28:50.479Z,75.00
2019-02-26T20:31:21.459Z,75.45
2019-02-26T20:33:50.529Z,81.97
2019-02-26T20:36:20.509Z,81.53
2019-02-26T20:38:48.787Z,78.78
2019-02-26T20:41:17.192Z,82.92
2019-02-26T20:43:50.825Z,73.30
2019-02-26T20:46:19.175Z,75.78
2019-02-26T20:48:47.593Z,69.97
2019-02-26T20:51:20.596Z,63.38
2019-02-26T20:53:48.959Z,63.48
2019-02-26T20:56:17.855Z,59.77
2019-02-26T20:58:46.150Z,61.95
2019-02-26T21:01:14.602Z,60.67
2019-02-26T21:03:58.842Z,59.58
2019-02-26T21:06:27.195Z,54.88
2019-02-26T21:08:55.603Z,54.70
2019-02-26T21:11:25.932Z,56.33
2019-02-26T21:13:55.671Z,51.50
2019-02-26T21:16:23.995Z,53.38
2019-02-26T21:18:52.276Z,55.38
2019-02-26T21:21:22.161Z,55.00
2019-02-26T21:23:52.153Z,57.40
2019-02-26T21:26:20.541Z,55.67
2019-02-26T21:28:59.390Z,55.70
2019-02-26T21:31:20.732Z,57.50
2019-02-26T21:33:49.016Z,55.23
2019-02-26T21:36:17.367Z,56.00
2019-02-26T21:38:45.735Z,55.52
2019-02-26T21:41:14.044Z,57.62
2019-02-26T21:43:43.947Z,56.45
2019-02-26T21:46:12.545Z,59.10
2019-02-26T21:48:40.820Z,56.13
2019-02-26T21:51:09.105Z,54.58
2019-02-26T21:53:37.419Z,58.17
2019-02-26T21:56:05.699Z,53.42
2019-02-26T21:58:36.052Z,50.20
2019-02-26T22:01:05.412Z,51.85
2019-02-26T22:03:35.414Z,52.98
2019-02-26T22:06:05.483Z,53.33
2019-02-26T22:08:34.372Z,49.93
2019-02-26T22:11:05.568Z,49.00
2019-02-26T22:13:36.945Z,47.45
2019-02-26T22:16:05.317Z,43.75
2019-02-26T22:18:34.325Z,45.58
2019-02-26T22:21:02.791Z,42.13
2019-02-26T22:23:34.040Z,41.70
2019-02-26T22:26:01.235Z,42.05
2019-02-26T22:28:29.591Z,39.58
2019-02-26T22:30:57.903Z,40.25
2019-02-26T22:33:28.480Z,39.78
2019-02-26T22:35:59.822Z,38.40
2019-02-26T22:38:27.876Z,35.83
2019-02-26T22:40:56.251Z,38.70
2019-02-26T22:43:24.519Z,37.10
2019-02-26T22:45:52.856Z,38.40
2019-02-26T22:48:21.258Z,44.35
2019-02-26T22:50:49.551Z,44.15
2019-02-26T22:53:17.965Z,43.50
2019-02-26T22:55:49.610Z,46.48
2019-02-26T22:58:16.315Z,50.52
2019-02-26T23:00:58.244Z,47.95
2019-02-26T23:03:26.523Z,47.98
2019-02-26T23:05:59.051Z,51.50
2019-02-26T23:08:29.898Z,49.95
2019-02-26T23:10:58.323Z,47.35
2019-02-26T23:13:31.431Z,49.38
2019-02-26T23:15:57.110Z,52.95
2019-02-26T23:18:25.448Z,52.83
2019-02-26T23:20:53.727Z,50.73
2019-02-26T23:23:22.413Z,50.10
2019-02-26T23:25:50.825Z,50.75
2019-02-26T23:28:21.731Z,50.25
2019-02-26T23:30:49.191Z,48.40
2019-02-26T23:33:17.488Z,47.15
2019-02-26T23:35:47.999Z,47.45
2019-02-26T23:38:16.320Z,48.17
2019-02-26T23:40:46.363Z,48.10
2019-02-26T23:43:14.719Z,49.33
2019-02-26T23:45:43.047Z,44.75
2019-02-26T23:48:11.400Z,46.92
2019-02-26T23:50:47.119Z,43.17
2019-02-26T23:53:12.571Z,44.58
2019-02-26T23:55:40.927Z,43.13
2019-02-26T23:58:13.743Z,45.78
